createdAt,value
2017-04-13T00:00:06.579Z,8.99
2017-04-13T00:01:15.535Z,8.94
2017-04-13T00:02:24.492Z,8.92
2017-04-13T00:03:33.443Z,8.91
2017-04-13T00:04:42.762Z,8.95
2017-04-13T00:05:52.015Z,8.94
2017-04-13T00:07:01.289Z,8.98
2017-04-13T00:08:10.245Z,8.91
2017-04-13T00:09:19.199Z,8.91
2017-04-13T00:10:28.149Z,8.94
2017-04-13T00:11:37.347Z,8.99
2017-04-13T00:12:46.301Z,9.01
2017-04-13T00:13:55.257Z,8.95
2017-04-13T00:15:04.211Z,8.91
2017-04-13T00:16:13.157Z,8.96
2017-04-13T00:17:22.357Z,8.94
2017-04-13T00:18:31.308Z,9.01
2017-04-13T00:19:40.259Z,8.83
2017-04-13T00:20:49.207Z,8.89
2017-04-13T00:21:58.163Z,8.95
2017-04-13T00:23:07.447Z,8.91
2017-04-13T00:24:16.400Z,8.92
2017-04-13T00:25:25.358Z,8.84
2017-04-13T00:26:34.315Z,8.92
2017-04-13T00:27:43.270Z,8.94
2017-04-13T00:28:52.479Z,8.91
2017-04-13T00:30:01.442Z,8.74
2017-04-13T00:31:10.396Z,8.8
2017-04-13T00:32:19.354Z,8.92
2017-04-13T00:33:28.391Z,8.92
2017-04-13T00:34:37.596Z,8.89
2017-04-13T00:35:46.874Z,8.87
2017-04-13T00:36:55.919Z,8.91
2017-04-13T00:38:04.876Z,8.86
2017-04-13T00:39:13.913Z,8.87
2017-04-13T00:40:23.120Z,8.86
2017-04-13T00:41:32.067Z,8.91
2017-04-13T00:42:41.023Z,8.81
2017-04-13T00:43:49.976Z,8.74
2017-04-13T00:44:58.926Z,8.62
2017-04-13T00:46:08.218Z,8.56
2017-04-13T00:47:17.171Z,8.61
2017-04-13T00:48:26.127Z,8.48
2017-04-13T00:49:35.075Z,8.55
2017-04-13T00:50:44.032Z,8.5
2017-04-13T00:51:53.240Z,8.44
2017-04-13T00:53:02.200Z,8.47
2017-04-13T00:54:11.157Z,8.44
2017-04-13T00:55:20.111Z,8.38
2017-04-13T00:56:29.072Z,8.41
2017-04-13T00:57:38.617Z,8.36
2017-04-13T00:58:47.569Z,8.29
2017-04-13T00:59:56.523Z,8.36
2017-04-13T01:01:05.527Z,8.37
2017-04-13T01:02:14.473Z,8.29
2017-04-13T01:03:23.673Z,8.36
2017-04-13T01:04:32.722Z,8.36
2017-04-13T01:05:41.688Z,8.33
2017-04-13T01:06:50.962Z,8.28
2017-04-13T01:07:59.920Z,8.19
2017-04-13T01:09:09.122Z,8.19
2017-04-13T01:10:18.071Z,8.2
2017-04-13T01:11:27.020Z,8.2
2017-04-13T01:12:35.976Z,8.16
2017-04-13T01:13:44.924Z,8.18
2017-04-13T01:14:54.123Z,8.2
2017-04-13T01:16:03.077Z,8.15
2017-04-13T01:17:12.031Z,8.18
2017-04-13T01:18:20.983Z,8.19
2017-04-13T01:19:29.932Z,8.15
2017-04-13T01:20:39.137Z,8.18
2017-04-13T01:21:48.146Z,8.12
2017-04-13T01:22:57.100Z,8.16
2017-04-13T01:24:06.055Z,8.19
2017-04-13T01:25:15.344Z,8.25
2017-04-13T01:26:24.551Z,8.26
2017-04-13T01:27:33.596Z,8.2
2017-04-13T01:28:42.637Z,8.25
2017-04-13T01:29:51.590Z,8.34
2017-04-13T01:31:00.538Z,8.4
2017-04-13T01:32:09.826Z,8.33
2017-04-13T01:33:18.783Z,8.36
2017-04-13T01:34:27.743Z,8.41
2017-04-13T01:35:36.779Z,8.4
2017-04-13T01:36:45.729Z,8.38
2017-04-13T01:37:54.938Z,8.38
2017-04-13T01:39:03.982Z,8.41
2017-04-13T01:40:13.025Z,8.43
2017-04-13T01:41:21.975Z,8.4
2017-04-13T01:42:30.934Z,8.41
2017-04-13T01:43:40.183Z,8.41
2017-04-13T01:44:49.139Z,8.38
2017-04-13T01:45:58.228Z,8.4
2017-04-13T01:47:07.264Z,8.38
2017-04-13T01:48:16.216Z,8.36
2017-04-13T01:49:25.472Z,8.45
2017-04-13T01:50:34.426Z,8.36
2017-04-13T01:51:43.377Z,8.47
2017-04-13T01:52:52.328Z,8.41
2017-04-13T01:54:01.281Z,8.36
2017-04-13T01:55:10.486Z,8.4
2017-04-13T01:56:19.438Z,8.4
2017-04-13T01:57:28.400Z,8.36
2017-04-13T01:58:37.405Z,8.36
2017-04-13T01:59:46.366Z,8.34
2017-04-13T02:00:55.563Z,8.38
2017-04-13T02:02:04.515Z,8.38
2017-04-13T02:03:13.472Z,8.36
2017-04-13T02:04:22.435Z,8.4
2017-04-13T02:05:31.389Z,8.37
2017-04-13T02:06:40.593Z,8.33
2017-04-13T02:07:49.541Z,8.34
2017-04-13T02:08:58.487Z,8.3
2017-04-13T02:10:07.441Z,8.36
2017-04-13T02:11:16.393Z,8.25
2017-04-13T02:12:25.643Z,8.26
2017-04-13T02:13:34.608Z,8.29
2017-04-13T02:14:43.564Z,8.26
2017-04-13T02:15:52.522Z,8.26
2017-04-13T02:17:01.500Z,8.29
2017-04-13T02:18:10.700Z,8.25
2017-04-13T02:19:19.660Z,8.18
2017-04-13T02:20:28.614Z,8.22
2017-04-13T02:21:37.568Z,8.15
2017-04-13T02:22:46.601Z,8.18
2017-04-13T02:23:55.805Z,8.1
2017-04-13T02:25:04.849Z,8.12
2017-04-13T02:26:13.798Z,8.08
2017-04-13T02:27:22.748Z,8.05
2017-04-13T02:28:31.710Z,8.02
2017-04-13T02:29:41.248Z,8
2017-04-13T02:30:50.531Z,8.02
2017-04-13T02:31:59.481Z,7.93
2017-04-13T02:33:08.429Z,7.97
2017-04-13T02:34:17.383Z,7.95
2017-04-13T02:35:26.584Z,7.9
2017-04-13T02:36:35.860Z,8
2017-04-13T02:37:44.816Z,7.95
2017-04-13T02:38:53.768Z,7.92
2017-04-13T02:40:02.715Z,7.86
2017-04-13T02:41:11.918Z,7.86
2017-04-13T02:42:20.872Z,7.9
2017-04-13T02:43:30.151Z,7.92
2017-04-13T02:44:39.104Z,7.87
2017-04-13T02:45:48.059Z,7.92
2017-04-13T02:46:57.263Z,7.9
2017-04-13T02:48:06.212Z,7.83
2017-04-13T02:49:15.168Z,7.95
2017-04-13T02:50:24.121Z,7.97
2017-04-13T02:51:33.070Z,8
2017-04-13T02:52:42.358Z,7.92
2017-04-13T02:53:51.308Z,7.92
2017-04-13T02:55:00.342Z,7.93
2017-04-13T02:56:09.293Z,7.97
2017-04-13T02:57:18.348Z,7.83
2017-04-13T02:58:27.549Z,7.95
2017-04-13T02:59:36.501Z,7.93
2017-04-13T03:00:45.459Z,7.98
2017-04-13T03:01:54.502Z,7.92
2017-04-13T03:03:03.464Z,7.95
2017-04-13T03:04:12.668Z,7.95
2017-04-13T03:05:21.617Z,7.95
2017-04-13T03:06:30.614Z,7.83
2017-04-13T03:07:39.567Z,7.86
2017-04-13T03:08:48.521Z,7.92
2017-04-13T03:09:57.808Z,7.87
2017-04-13T03:11:06.756Z,7.79
2017-04-13T03:12:15.713Z,7.77
2017-04-13T03:13:24.672Z,7.72
2017-04-13T03:14:33.620Z,7.75
2017-04-13T03:15:42.818Z,7.71
2017-04-13T03:16:51.856Z,7.71
2017-04-13T03:18:00.809Z,7.77
2017-04-13T03:19:09.768Z,7.71
2017-04-13T03:20:18.723Z,7.74
2017-04-13T03:21:27.921Z,7.74
2017-04-13T03:22:36.868Z,7.71
2017-04-13T03:23:45.819Z,7.77
2017-04-13T03:24:54.773Z,7.83
2017-04-13T03:26:03.777Z,7.8
2017-04-13T03:27:13.060Z,7.86
2017-04-13T03:28:22.016Z,7.85
2017-04-13T03:29:30.971Z,7.83
2017-04-13T03:30:39.917Z,7.82
2017-04-13T03:31:48.963Z,7.82
2017-04-13T03:32:58.253Z,7.77
2017-04-13T03:34:07.207Z,7.8
2017-04-13T03:35:16.158Z,7.9
2017-04-13T03:36:25.114Z,7.92
2017-04-13T03:37:34.144Z,7.87
2017-04-13T03:38:43.349Z,7.86
2017-04-13T03:39:52.299Z,7.82
2017-04-13T03:41:01.249Z,7.86
2017-04-13T03:42:10.204Z,7.93
2017-04-13T03:43:19.155Z,7.9
2017-04-13T03:44:28.354Z,7.92
2017-04-13T03:45:37.303Z,7.87
2017-04-13T03:46:46.249Z,7.83
2017-04-13T03:47:55.206Z,7.86
2017-04-13T03:49:04.167Z,7.87
2017-04-13T03:50:13.452Z,7.89
2017-04-13T03:51:22.413Z,7.89
2017-04-13T03:52:31.368Z,7.87
2017-04-13T03:53:40.320Z,7.83
2017-04-13T03:54:49.269Z,7.87
2017-04-13T03:55:58.468Z,7.85
2017-04-13T03:57:07.421Z,7.79
2017-04-13T03:58:16.462Z,7.85
2017-04-13T03:59:25.512Z,7.83
2017-04-13T04:00:34.466Z,7.82
2017-04-13T04:01:43.707Z,7.79
2017-04-13T04:02:52.655Z,7.74
2017-04-13T04:04:01.602Z,7.72
2017-04-13T04:05:10.549Z,7.82
2017-04-13T04:06:19.503Z,7.8
2017-04-13T04:07:28.703Z,7.79
2017-04-13T04:08:37.654Z,7.77
2017-04-13T04:09:46.601Z,7.82
2017-04-13T04:10:55.555Z,7.86
2017-04-13T04:12:04.509Z,7.82
2017-04-13T04:13:13.756Z,7.86
2017-04-13T04:14:22.704Z,7.86
2017-04-13T04:15:31.658Z,7.82
2017-04-13T04:16:40.943Z,7.79
2017-04-13T04:17:50.062Z,7.75
2017-04-13T04:18:59.313Z,7.75
2017-04-13T04:20:08.318Z,7.74
2017-04-13T04:21:17.269Z,7.79
2017-04-13T04:22:26.311Z,7.77
2017-04-13T04:23:35.267Z,7.8
2017-04-13T04:24:44.466Z,7.79
2017-04-13T04:25:53.503Z,7.71
2017-04-13T04:27:02.459Z,7.67
2017-04-13T04:28:11.488Z,7.67
2017-04-13T04:29:20.764Z,7.61
2017-04-13T04:30:30.022Z,7.61
2017-04-13T04:31:38.972Z,7.71
2017-04-13T04:32:47.922Z,7.71
2017-04-13T04:33:56.878Z,7.61
2017-04-13T04:35:05.830Z,7.74
2017-04-13T04:36:15.028Z,7.64
2017-04-13T04:37:23.976Z,7.68
2017-04-13T04:38:32.929Z,7.58
2017-04-13T04:39:42.287Z,7.67
2017-04-13T04:40:51.325Z,7.58
2017-04-13T04:42:00.528Z,7.67
2017-04-13T04:43:09.482Z,7.53
2017-04-13T04:44:18.436Z,7.57
2017-04-13T04:45:27.388Z,7.55
2017-04-13T04:46:36.421Z,7.61
2017-04-13T04:47:46.366Z,7.55
2017-04-13T04:48:55.327Z,7.57
2017-04-13T04:50:04.277Z,7.68
2017-04-13T04:51:13.226Z,7.6
2017-04-13T04:52:22.177Z,7.61
2017-04-13T04:53:31.427Z,7.64
2017-04-13T04:54:40.702Z,7.71
2017-04-13T04:55:49.655Z,7.77
2017-04-13T04:56:58.609Z,7.77
2017-04-13T04:58:07.556Z,7.79
2017-04-13T04:59:16.761Z,7.74
2017-04-13T05:00:25.715Z,7.79
2017-04-13T05:01:34.673Z,7.74
2017-04-13T05:02:43.708Z,7.75
2017-04-13T05:03:52.666Z,7.74
2017-04-13T05:05:01.867Z,7.61
2017-04-13T05:06:10.904Z,7.63
2017-04-13T05:07:19.951Z,7.61
2017-04-13T05:08:28.986Z,7.6
2017-04-13T05:09:37.937Z,7.61
2017-04-13T05:10:47.136Z,7.6
2017-04-13T05:11:56.122Z,7.67
2017-04-13T05:13:05.159Z,7.61
2017-04-13T05:14:14.113Z,7.67
2017-04-13T05:15:23.060Z,7.61
2017-04-13T05:16:32.263Z,7.61
2017-04-13T05:17:41.213Z,7.69
2017-04-13T05:18:50.163Z,7.67
2017-04-13T05:19:59.113Z,7.63
2017-04-13T05:21:08.067Z,7.72
2017-04-13T05:22:17.266Z,7.64
2017-04-13T05:23:26.254Z,7.64
2017-04-13T05:24:35.211Z,7.75
2017-04-13T05:25:44.246Z,7.72
2017-04-13T05:26:53.288Z,7.71
2017-04-13T05:28:02.536Z,7.75
2017-04-13T05:29:11.481Z,7.75
2017-04-13T05:30:20.473Z,7.72
2017-04-13T05:31:29.423Z,7.72
2017-04-13T05:32:38.376Z,7.74
2017-04-13T05:33:47.587Z,7.71
2017-04-13T05:34:56.535Z,7.68
2017-04-13T05:36:05.481Z,7.72
2017-04-13T05:37:14.434Z,7.69
2017-04-13T05:38:23.388Z,7.75
2017-04-13T05:39:32.636Z,7.64
2017-04-13T05:40:41.586Z,7.72
2017-04-13T05:41:50.717Z,7.68
2017-04-13T05:42:59.753Z,7.69
2017-04-13T05:44:08.712Z,7.64
2017-04-13T05:45:18.003Z,7.72
2017-04-13T05:46:26.998Z,7.68
2017-04-13T05:47:35.945Z,7.71
2017-04-13T05:48:44.980Z,7.77
2017-04-13T05:49:53.934Z,7.67
2017-04-13T05:51:03.135Z,7.72
2017-04-13T05:52:12.085Z,7.74
2017-04-13T05:53:21.090Z,7.83
2017-04-13T05:54:30.041Z,7.82
2017-04-13T05:55:38.990Z,7.83
2017-04-13T05:56:48.197Z,7.8
2017-04-13T05:57:57.150Z,7.86
2017-04-13T05:59:06.097Z,7.97
2017-04-13T06:00:15.050Z,7.98
2017-04-13T06:01:24.000Z,7.93
2017-04-13T06:02:33.205Z,8.02
2017-04-13T06:03:42.155Z,7.97
2017-04-13T06:04:51.108Z,8.07
2017-04-13T06:06:00.177Z,8.07
2017-04-13T06:07:09.172Z,8.1
2017-04-13T06:08:18.519Z,8.18
2017-04-13T06:09:27.575Z,8.16
2017-04-13T06:10:36.612Z,8.25
2017-04-13T06:11:45.563Z,8.26
2017-04-13T06:12:54.629Z,8.18
2017-04-13T06:14:04.019Z,8.16
2017-04-13T06:15:12.966Z,8.18
2017-04-13T06:16:21.934Z,8.15
2017-04-13T06:17:30.889Z,8.26
2017-04-13T06:18:39.952Z,8.22
2017-04-13T06:19:49.351Z,8.19
2017-04-13T06:20:58.526Z,8.25
2017-04-13T06:22:07.670Z,8.16
2017-04-13T06:23:16.664Z,8.2
2017-04-13T06:24:25.725Z,8.26
2017-04-13T06:25:35.153Z,8.33
2017-04-13T06:26:44.161Z,8.36
2017-04-13T06:27:53.397Z,8.36
2017-04-13T06:29:02.349Z,8.4
2017-04-13T06:30:11.303Z,8.41
2017-04-13T06:31:20.505Z,8.37
2017-04-13T06:32:29.542Z,8.44
2017-04-13T06:33:38.487Z,8.45
2017-04-13T06:34:47.440Z,8.43
2017-04-13T06:35:56.476Z,8.43
2017-04-13T06:37:05.770Z,8.41
2017-04-13T06:38:14.723Z,8.5
2017-04-13T06:39:23.670Z,8.62
2017-04-13T06:40:32.622Z,8.58
2017-04-13T06:41:41.572Z,8.68
2017-04-13T06:42:50.780Z,8.71
2017-04-13T06:43:59.733Z,8.83
2017-04-13T06:45:08.685Z,8.91
2017-04-13T06:46:17.637Z,9.05
2017-04-13T06:47:26.596Z,9.04
2017-04-13T06:48:35.848Z,8.99
2017-04-13T06:49:44.805Z,8.89
2017-04-13T06:50:53.759Z,8.91
2017-04-13T06:52:02.709Z,8.91
2017-04-13T06:53:11.665Z,8.86
2017-04-13T06:54:20.908Z,8.86
2017-04-13T06:55:29.863Z,8.96
2017-04-13T06:56:38.811Z,8.96
2017-04-13T06:57:48.085Z,8.98
2017-04-13T06:58:57.036Z,9.02
2017-04-13T07:00:06.233Z,9.11
2017-04-13T07:01:15.181Z,9.2
2017-04-13T07:02:24.132Z,9.17
2017-04-13T07:03:33.089Z,9.18
2017-04-13T07:04:42.363Z,9.21
2017-04-13T07:05:51.618Z,9.17
2017-04-13T07:07:00.569Z,9.23
2017-04-13T07:08:09.515Z,9.21
2017-04-13T07:09:18.468Z,9.26
2017-04-13T07:10:27.420Z,9.35
2017-04-13T07:11:36.625Z,9.38
2017-04-13T07:12:45.585Z,9.47
2017-04-13T07:13:54.614Z,9.5
2017-04-13T07:15:03.665Z,9.42
2017-04-13T07:16:12.706Z,9.6
2017-04-13T07:17:21.967Z,9.65
2017-04-13T07:18:30.923Z,9.66
2017-04-13T07:19:39.871Z,9.71
2017-04-13T07:20:48.825Z,9.83
2017-04-13T07:21:57.777Z,9.78
2017-04-13T07:23:06.980Z,9.89
2017-04-13T07:24:15.930Z,9.86
2017-04-13T07:25:24.878Z,10.01
2017-04-13T07:26:33.835Z,9.96
2017-04-13T07:27:42.795Z,10.01
2017-04-13T07:28:52.055Z,10.01
2017-04-13T07:30:01.008Z,10.05
2017-04-13T07:31:09.961Z,10.23
2017-04-13T07:32:19.092Z,10.32
2017-04-13T07:33:28.046Z,10.3
2017-04-13T07:34:37.247Z,10.34
2017-04-13T07:35:46.205Z,10.4
2017-04-13T07:36:55.244Z,10.4
2017-04-13T07:38:04.198Z,10.42
2017-04-13T07:39:13.154Z,10.38
2017-04-13T07:40:22.498Z,10.51
2017-04-13T07:41:31.459Z,10.51
2017-04-13T07:42:40.416Z,10.55
2017-04-13T07:43:49.370Z,10.61
2017-04-13T07:44:58.409Z,10.66
2017-04-13T07:46:07.623Z,10.86
2017-04-13T07:47:16.639Z,10.88
2017-04-13T07:48:25.778Z,10.88
2017-04-13T07:49:34.817Z,11.03
2017-04-13T07:50:43.768Z,10.92
2017-04-13T07:51:52.975Z,10.88
2017-04-13T07:53:01.935Z,10.88
2017-04-13T07:54:10.977Z,10.99
2017-04-13T07:55:19.937Z,10.96
2017-04-13T07:56:28.889Z,10.96
2017-04-13T07:57:38.142Z,10.94
2017-04-13T07:58:47.129Z,10.85
2017-04-13T07:59:56.080Z,10.89
2017-04-13T08:01:05.041Z,10.86
2017-04-13T08:02:13.996Z,10.79
2017-04-13T08:03:23.202Z,10.81
2017-04-13T08:04:32.154Z,10.73
2017-04-13T08:05:41.112Z,10.68
2017-04-13T08:06:50.067Z,10.6
2017-04-13T08:07:59.031Z,10.66
2017-04-13T08:09:08.233Z,10.7
2017-04-13T08:10:17.271Z,10.67
2017-04-13T08:11:26.225Z,10.66
2017-04-13T08:12:35.181Z,10.7
2017-04-13T08:13:44.130Z,10.73
2017-04-13T08:14:53.337Z,10.86
2017-04-13T08:16:02.290Z,10.94
2017-04-13T08:17:11.246Z,11.02
2017-04-13T08:18:20.200Z,11.1
2017-04-13T08:19:29.244Z,11.15
2017-04-13T08:20:38.449Z,11.07
2017-04-13T08:21:47.402Z,11.14
2017-04-13T08:22:56.359Z,11.07
2017-04-13T08:24:05.312Z,10.97
2017-04-13T08:25:14.268Z,10.99
2017-04-13T08:26:23.477Z,11.1
2017-04-13T08:27:32.429Z,11.09
2017-04-13T08:28:41.389Z,11.15
2017-04-13T08:29:50.664Z,11.22
2017-04-13T08:30:59.617Z,11.42
2017-04-13T08:32:08.820Z,11.57
2017-04-13T08:33:17.773Z,11.61
2017-04-13T08:34:26.724Z,11.58
2017-04-13T08:35:35.690Z,11.65
2017-04-13T08:36:44.641Z,11.76
2017-04-13T08:37:53.891Z,11.7
2017-04-13T08:39:02.843Z,11.79
2017-04-13T08:40:11.886Z,11.79
2017-04-13T08:41:20.841Z,11.79
2017-04-13T08:42:29.791Z,11.78
2017-04-13T08:43:38.996Z,11.79
2017-04-13T08:44:47.987Z,11.7
2017-04-13T08:45:56.952Z,11.7
2017-04-13T08:47:05.908Z,11.65
2017-04-13T08:48:14.856Z,11.72
2017-04-13T08:49:24.061Z,11.69
2017-04-13T08:50:33.110Z,11.67
2017-04-13T08:51:42.066Z,11.69
2017-04-13T08:52:51.017Z,11.65
2017-04-13T08:53:59.973Z,11.65
2017-04-13T08:55:09.174Z,11.6
2017-04-13T08:56:18.133Z,11.62
2017-04-13T08:57:27.130Z,11.58
2017-04-13T08:58:36.086Z,11.73
2017-04-13T08:59:45.038Z,11.67
2017-04-13T09:00:54.333Z,11.64
2017-04-13T09:02:03.367Z,11.67
2017-04-13T09:03:12.317Z,11.72
2017-04-13T09:04:21.279Z,11.73
2017-04-13T09:05:30.322Z,11.64
2017-04-13T09:06:39.725Z,11.86
2017-04-13T09:07:48.681Z,11.99
2017-04-13T09:08:57.632Z,12.09
2017-04-13T09:10:06.588Z,12.13
2017-04-13T09:11:15.546Z,12.2
2017-04-13T09:12:24.847Z,12.24
2017-04-13T09:13:33.801Z,12.19
2017-04-13T09:14:42.761Z,12.07
2017-04-13T09:15:51.716Z,12.13
2017-04-13T09:17:00.673Z,12.09
2017-04-13T09:18:09.921Z,12.07
2017-04-13T09:19:18.878Z,11.98
2017-04-13T09:20:27.832Z,12.02
2017-04-13T09:21:36.796Z,11.94
2017-04-13T09:22:45.752Z,11.88
2017-04-13T09:23:54.708Z,11.83
2017-04-13T09:25:03.662Z,11.94
2017-04-13T09:26:12.618Z,11.98
2017-04-13T09:27:21.655Z,11.96
2017-04-13T09:28:30.911Z,11.95
2017-04-13T09:29:39.861Z,11.91
2017-04-13T09:30:48.822Z,11.9
2017-04-13T09:31:57.778Z,11.94
2017-04-13T09:33:06.726Z,11.99
2017-04-13T09:34:15.982Z,12.02
2017-04-13T09:35:24.934Z,11.98
2017-04-13T09:36:33.892Z,12.01
2017-04-13T09:37:43.175Z,11.98
2017-04-13T09:38:52.124Z,11.94
2017-04-13T09:40:01.327Z,11.98
2017-04-13T09:41:10.284Z,12.14
2017-04-13T09:42:19.239Z,12.2
2017-04-13T09:43:28.192Z,12.28
2017-04-13T09:44:37.146Z,12.38
2017-04-13T09:45:46.409Z,12.57
2017-04-13T09:46:55.366Z,12.53
2017-04-13T09:48:04.320Z,12.72
2017-04-13T09:49:13.365Z,12.68
2017-04-13T09:50:22.313Z,12.68
2017-04-13T09:51:31.525Z,12.72
2017-04-13T09:52:40.480Z,12.75
2017-04-13T09:53:49.443Z,12.68
2017-04-13T09:54:58.400Z,12.78
2017-04-13T09:56:07.352Z,12.82
2017-04-13T09:57:16.556Z,12.85
2017-04-13T09:58:25.549Z,12.79
2017-04-13T09:59:34.589Z,12.86
2017-04-13T10:00:43.543Z,12.89
2017-04-13T10:01:52.641Z,12.85
2017-04-13T10:03:02.195Z,12.71
2017-04-13T10:04:11.258Z,12.68
2017-04-13T10:05:20.226Z,12.77
2017-04-13T10:06:29.179Z,12.68
2017-04-13T10:07:38.134Z,12.59
2017-04-13T10:08:47.479Z,12.5
2017-04-13T10:09:56.430Z,12.59
2017-04-13T10:11:05.472Z,12.56
2017-04-13T10:12:14.433Z,12.54
2017-04-13T10:13:23.485Z,12.57
2017-04-13T10:14:32.902Z,12.56
2017-04-13T10:15:41.856Z,12.56
2017-04-13T10:16:50.814Z,12.57
2017-04-13T10:17:59.897Z,12.65
2017-04-13T10:19:08.896Z,12.68
2017-04-13T10:20:18.147Z,12.89
2017-04-13T10:21:27.099Z,12.78
2017-04-13T10:22:36.361Z,12.89
2017-04-13T10:23:45.370Z,12.83
2017-04-13T10:24:54.679Z,12.86
2017-04-13T10:26:03.934Z,12.95
2017-04-13T10:27:12.894Z,13.14
2017-04-13T10:28:21.978Z,13.25
2017-04-13T10:29:30.985Z,13.25
2017-04-13T10:30:40.033Z,13.39
2017-04-13T10:31:49.241Z,13.39
2017-04-13T10:32:58.228Z,13.42
2017-04-13T10:34:07.189Z,13.46
2017-04-13T10:35:16.147Z,13.39
2017-04-13T10:36:25.192Z,13.36
2017-04-13T10:37:34.454Z,13.22
2017-04-13T10:38:43.411Z,13.23
2017-04-13T10:39:52.367Z,13.26
2017-04-13T10:41:01.323Z,13.17
2017-04-13T10:42:10.283Z,12.97
2017-04-13T10:43:19.538Z,12.89
2017-04-13T10:44:28.488Z,12.86
2017-04-13T10:45:37.456Z,12.72
2017-04-13T10:46:46.414Z,12.74
2017-04-13T10:47:55.374Z,12.77
2017-04-13T10:49:04.577Z,12.75
2017-04-13T10:50:13.622Z,12.85
2017-04-13T10:51:22.583Z,12.9
2017-04-13T10:52:31.547Z,12.79
2017-04-13T10:53:40.499Z,12.72
2017-04-13T10:54:49.708Z,12.71
2017-04-13T10:55:58.667Z,12.78
2017-04-13T10:57:07.625Z,12.7
2017-04-13T10:58:16.580Z,12.74
2017-04-13T10:59:25.535Z,12.68
2017-04-13T11:00:34.792Z,12.7
2017-04-13T11:01:43.745Z,12.75
2017-04-13T11:02:52.749Z,12.71
2017-04-13T11:04:01.699Z,12.72
2017-04-13T11:05:10.653Z,12.71
2017-04-13T11:06:19.860Z,12.87
2017-04-13T11:07:28.821Z,12.92
2017-04-13T11:08:37.782Z,13
2017-04-13T11:09:46.737Z,13.03
2017-04-13T11:10:55.693Z,13.19
2017-04-13T11:12:04.905Z,13.25
2017-04-13T11:13:13.860Z,13.39
2017-04-13T11:14:22.908Z,13.41
2017-04-13T11:15:32.188Z,13.49
2017-04-13T11:16:41.149Z,13.46
2017-04-13T11:17:50.404Z,13.46
2017-04-13T11:18:59.361Z,13.48
2017-04-13T11:20:08.406Z,13.6
2017-04-13T11:21:17.366Z,13.66
2017-04-13T11:22:26.327Z,13.77
2017-04-13T11:23:35.533Z,13.81
2017-04-13T11:24:44.670Z,13.85
2017-04-13T11:25:53.713Z,13.96
2017-04-13T11:27:02.667Z,13.95
2017-04-13T11:28:11.624Z,14.07
2017-04-13T11:29:20.833Z,14.14
2017-04-13T11:30:29.788Z,14.12
2017-04-13T11:31:38.831Z,14.24
2017-04-13T11:32:47.788Z,14.22
2017-04-13T11:33:56.747Z,14.25
2017-04-13T11:35:05.958Z,14.35
2017-04-13T11:36:14.923Z,14.35
2017-04-13T11:37:23.881Z,14.45
2017-04-13T11:38:32.839Z,14.42
2017-04-13T11:39:41.794Z,14.5
2017-04-13T11:40:51.053Z,14.54
2017-04-13T11:42:00.013Z,14.43
2017-04-13T11:43:08.970Z,14.36
2017-04-13T11:44:17.928Z,14.35
2017-04-13T11:45:26.889Z,14.21
2017-04-13T11:46:36.100Z,14.07
2017-04-13T11:47:45.148Z,14.06
2017-04-13T11:48:54.114Z,13.87
2017-04-13T11:50:03.169Z,13.95
2017-04-13T11:51:12.126Z,13.92
2017-04-13T11:52:21.426Z,13.89
2017-04-13T11:53:30.387Z,13.89
2017-04-13T11:54:39.341Z,13.87
2017-04-13T11:55:48.383Z,13.84
2017-04-13T11:56:57.340Z,13.73
2017-04-13T11:58:06.552Z,13.7
2017-04-13T11:59:15.506Z,13.75
2017-04-13T12:00:24.784Z,13.59
2017-04-13T12:01:33.739Z,13.55
2017-04-13T12:02:42.698Z,13.66
2017-04-13T12:03:51.913Z,13.49
2017-04-13T12:05:00.869Z,13.46
2017-04-13T12:06:10.172Z,13.44
2017-04-13T12:07:19.130Z,13.39
2017-04-13T12:08:28.086Z,13.41
2017-04-13T12:09:37.343Z,13.42
2017-04-13T12:10:46.297Z,13.42
2017-04-13T12:11:55.256Z,13.22
2017-04-13T12:13:04.208Z,13.19
2017-04-13T12:14:13.159Z,13.19
2017-04-13T12:15:22.369Z,13.14
2017-04-13T12:16:31.322Z,13.08
2017-04-13T12:17:40.288Z,13.1
2017-04-13T12:18:49.242Z,13.03
2017-04-13T12:19:58.203Z,13.03
2017-04-13T12:21:07.415Z,13.01
2017-04-13T12:22:16.375Z,12.89
2017-04-13T12:23:25.672Z,12.92
2017-04-13T12:24:34.720Z,12.95
2017-04-13T12:25:43.763Z,12.83
2017-04-13T12:26:53.111Z,12.87
2017-04-13T12:28:02.107Z,12.89
2017-04-13T12:29:11.149Z,12.97
2017-04-13T12:30:20.103Z,12.96
2017-04-13T12:31:29.062Z,12.93
2017-04-13T12:32:38.268Z,12.89
2017-04-13T12:33:47.225Z,12.87
2017-04-13T12:34:56.183Z,13.01
2017-04-13T12:36:05.139Z,13.04
2017-04-13T12:37:14.097Z,13.08
2017-04-13T12:38:23.306Z,13.1
2017-04-13T12:39:32.262Z,13.22
2017-04-13T12:40:41.220Z,13.15
2017-04-13T12:41:50.183Z,13.2
2017-04-13T12:42:59.139Z,13.22
2017-04-13T12:44:08.344Z,13.25
2017-04-13T12:45:17.393Z,13.32
2017-04-13T12:46:26.436Z,13.46
2017-04-13T12:47:35.392Z,13.41
2017-04-13T12:48:44.434Z,13.44
2017-04-13T12:49:53.636Z,13.41
2017-04-13T12:51:02.675Z,13.44
2017-04-13T12:52:11.630Z,13.45
2017-04-13T12:53:20.584Z,13.42
2017-04-13T12:54:29.552Z,13.3
2017-04-13T12:55:38.758Z,13.25
2017-04-13T12:56:47.711Z,13.2
2017-04-13T12:57:56.669Z,13.22
2017-04-13T12:59:05.621Z,13.14
2017-04-13T13:00:14.575Z,13.23
2017-04-13T13:01:24.007Z,13.2
2017-04-13T13:02:33.065Z,13.19
2017-04-13T13:03:42.019Z,13.03
2017-04-13T13:04:50.977Z,12.96
2017-04-13T13:05:59.927Z,13.05
2017-04-13T13:07:09.184Z,13.01
2017-04-13T13:08:18.137Z,13
2017-04-13T13:09:27.091Z,12.96
2017-04-13T13:10:36.062Z,12.86
2017-04-13T13:11:45.337Z,12.9
2017-04-13T13:12:54.594Z,12.83
2017-04-13T13:14:03.548Z,12.86
2017-04-13T13:15:12.502Z,12.9
2017-04-13T13:16:21.460Z,12.89
2017-04-13T13:17:30.433Z,12.86
2017-04-13T13:18:39.690Z,13.01
2017-04-13T13:19:48.645Z,12.97
2017-04-13T13:20:57.599Z,13.07
2017-04-13T13:22:06.551Z,13.07
2017-04-13T13:23:15.503Z,13.1
2017-04-13T13:24:24.707Z,13.1
2017-04-13T13:25:33.671Z,13.19
2017-04-13T13:26:42.624Z,13.14
2017-04-13T13:27:51.580Z,13.22
2017-04-13T13:29:00.540Z,13.23
2017-04-13T13:30:09.762Z,13.26
2017-04-13T13:31:18.802Z,13.26
2017-04-13T13:32:27.844Z,13.26
2017-04-13T13:33:36.796Z,13.32
2017-04-13T13:34:45.837Z,13.3
2017-04-13T13:35:55.042Z,13.29
2017-04-13T13:37:04.002Z,13.41
2017-04-13T13:38:13.002Z,13.44
2017-04-13T13:39:21.959Z,13.39
2017-04-13T13:40:30.919Z,13.44
2017-04-13T13:41:40.127Z,13.39
2017-04-13T13:42:49.080Z,13.41
2017-04-13T13:43:58.037Z,13.38
2017-04-13T13:45:07.324Z,13.38
2017-04-13T13:46:16.281Z,13.38
2017-04-13T13:47:25.492Z,13.36
2017-04-13T13:48:34.447Z,13.42
2017-04-13T13:49:43.402Z,13.39
2017-04-13T13:50:52.356Z,13.46
2017-04-13T13:52:01.310Z,13.55
2017-04-13T13:53:10.513Z,13.62
2017-04-13T13:54:19.469Z,13.59
2017-04-13T13:55:28.428Z,13.6
2017-04-13T13:56:37.377Z,13.62
2017-04-13T13:57:46.335Z,13.63
2017-04-13T13:58:55.540Z,13.59
2017-04-13T14:00:04.494Z,13.55
2017-04-13T14:01:13.453Z,13.55
2017-04-13T14:02:22.412Z,13.52
2017-04-13T14:03:31.367Z,13.48
2017-04-13T14:04:40.578Z,13.51
2017-04-13T14:05:49.541Z,13.57
2017-04-13T14:06:58.498Z,13.66
2017-04-13T14:08:07.452Z,13.69
2017-04-13T14:09:16.407Z,13.78
2017-04-13T14:10:25.662Z,13.75
2017-04-13T14:11:34.633Z,13.75
2017-04-13T14:12:43.583Z,13.84
2017-04-13T14:13:52.536Z,13.77
2017-04-13T14:15:01.494Z,13.84
2017-04-13T14:16:10.702Z,13.79
2017-04-13T14:17:19.661Z,13.77
2017-04-13T14:18:28.621Z,13.84
2017-04-13T14:19:37.572Z,13.82
2017-04-13T14:20:46.525Z,13.85
2017-04-13T14:21:55.727Z,13.85
2017-04-13T14:23:04.682Z,13.88
2017-04-13T14:24:13.637Z,13.88
2017-04-13T14:25:22.592Z,13.79
2017-04-13T14:26:31.548Z,13.73
2017-04-13T14:27:40.762Z,13.82
2017-04-13T14:28:49.715Z,13.77
2017-04-13T14:29:58.755Z,13.73
2017-04-13T14:31:07.711Z,13.67
2017-04-13T14:32:16.677Z,13.66
2017-04-13T14:33:25.892Z,13.6
2017-04-13T14:34:34.856Z,13.55
2017-04-13T14:35:43.809Z,13.67
2017-04-13T14:36:52.855Z,13.6
2017-04-13T14:38:01.809Z,13.57
2017-04-13T14:39:11.017Z,13.63
2017-04-13T14:40:20.300Z,13.66
2017-04-13T14:41:29.257Z,13.57
2017-04-13T14:42:38.547Z,13.55
2017-04-13T14:43:47.502Z,13.52
2017-04-13T14:44:56.703Z,13.57
2017-04-13T14:46:05.657Z,13.51
2017-04-13T14:47:14.604Z,13.42
2017-04-13T14:48:23.558Z,13.42
2017-04-13T14:49:32.511Z,13.39
2017-04-13T14:50:41.721Z,13.41
2017-04-13T14:51:50.678Z,13.45
2017-04-13T14:52:59.719Z,13.3
2017-04-13T14:54:08.673Z,13.25
2017-04-13T14:55:17.633Z,13.2
2017-04-13T14:56:26.881Z,13.17
2017-04-13T14:57:35.841Z,13.22
2017-04-13T14:58:44.879Z,13.28
2017-04-13T14:59:53.837Z,13.26
2017-04-13T15:01:02.841Z,13.29
2017-04-13T15:02:12.046Z,13.28
2017-04-13T15:03:21.002Z,13.28
2017-04-13T15:04:29.963Z,13.38
2017-04-13T15:05:38.926Z,13.3
2017-04-13T15:06:47.878Z,13.46